Time;durP1;ratioP1;P1;durP2;ratioP2;P2;SDS_P1;SDS_P2;PMS_P1;PMS_P2;Temp;Humidity;BMP_temperature;BMP_pressure;BME280_temperature;BME280_humidity;BME280_pressure;Samples;Min_cycle;Max_cycle;Signal;HPM_P1;HPM_P2
2022/03/10 00:00:02;325417.00;1.08;561.61;28116.00;0.09;49.32;;;;;9.40;1.00;;;;;;2272407;61;1519;-87
2022/03/10 00:08:44;983286.00;3.28;1702.89;81370.00;0.27;141.40;;;;;8.60;1.00;;;;;;2272346;61;1906;-87
2022/03/10 00:11:40;180071.00;0.60;311.61;0.00;0.00;0.62;;;;;9.30;1.00;;;;;;2272462;61;965;-88
2022/03/10 00:14:21;146746.00;0.49;254.20;0.00;0.00;0.62;;;;;9.60;1.00;;;;;;2272348;61;1407;-88
2022/03/10 00:17:29;432881.00;1.44;746.34;107096.00;0.36;185.82;;;;;9.90;1.00;;;;;;2272402;61;1299;-88
2022/03/10 00:26:22;9870.00;0.03;17.72;0.00;0.00;0.62;;;;;10.30;1.00;;;;;;2272393;61;1505;-88
2022/03/10 00:29:20;263557.00;0.88;455.27;0.00;0.00;0.62;;;;;10.40;1.00;;;;;;2272328;61;2002;-88
2022/03/10 00:32:06;419022.00;1.40;722.51;0.00;0.00;0.62;;;;;10.40;1.00;;;;;;2263720;61;2199;-88
2022/03/10 00:37:43;293194.00;0.98;506.22;89933.00;0.30;156.19;;;;;10.00;1.00;;;;;;2271980;61;1262;-88
2022/03/10 00:40:22;844539.00;2.82;1458.91;81189.00;0.27;141.09;;;;;10.10;1.00;;;;;;2272367;61;1366;-89
2022/03/10 00:43:29;760877.00;2.54;1312.98;8867.00;0.03;15.99;;;;;10.30;1.00;;;;;;2272341;61;1544;-87
2022/03/10 00:46:16;221150.00;0.74;382.32;0.00;0.00;0.62;;;;;9.90;1.00;;;;;;2272323;61;984;-89
2022/03/10 00:48:51;265681.00;0.89;458.92;37877.00;0.13;66.22;;;;;10.00;1.00;;;;;;2272313;61;1995;-88
2022/03/10 00:51:50;257676.00;0.86;445.15;3768.00;0.01;7.15;;;;;9.90;1.00;;;;;;2272353;61;1927;-89
2022/03/10 00:57:15;652779.00;2.18;1125.44;186491.00;0.62;322.67;;;;;9.40;1.00;;;;;;2271686;61;1270;-88
2022/03/10 00:59:50;928712.00;3.10;1606.60;86537.00;0.29;150.33;;;;;9.10;1.00;;;;;;2272461;61;1490;-88
2022/03/10 01:02:39;877005.00;2.92;1515.77;90886.00;0.30;157.84;;;;;9.50;1.00;;;;;;2272988;61;1520;-87
2022/03/10 01:05:27;339238.00;1.13;585.36;20818.00;0.07;36.69;;;;;9.30;1.00;;;;;;2273020;61;1134;-88
2022/03/10 01:08:11;389241.00;1.30;671.31;0.00;0.00;0.62;;;;;8.70;1.00;;;;;;2272971;61;1689;-88
2022/03/10 01:10:53;168121.00;0.56;291.03;0.00;0.00;0.62;;;;;9.10;1.00;;;;;;2272931;61;1476;-88
2022/03/10 01:13:23;296602.00;0.99;512.08;23499.00;0.08;41.33;;;;;9.10;1.00;;;;;;2272998;61;1281;-87
2022/03/10 01:16:01;372699.00;1.24;642.88;0.00;0.00;0.62;;;;;8.90;1.00;;;;;;2272892;61;1659;-88
2022/03/10 01:18:59;500221.00;1.67;862.20;0.00;0.00;0.62;;;;;8.50;1.00;;;;;;2272825;61;1410;-88
2022/03/10 01:21:35;245410.00;0.82;424.06;0.00;0.00;0.62;;;;;9.00;1.00;;;;;;2272852;61;1555;-88
2022/03/10 01:24:20;598805.00;2.00;1032.16;91168.00;0.30;158.32;;;;;9.00;1.00;;;;;;2272901;61;1445;-88
2022/03/10 01:26:54;621121.00;2.07;1070.70;101336.00;0.34;175.88;;;;;8.40;1.00;;;;;;2272866;61;1318;-89
2022/03/10 01:29:28;1087549.00;3.63;1888.17;116034.00;0.39;201.24;;;;;8.50;1.00;;;;;;2272810;61;1919;-88
2022/03/10 01:32:03;786304.00;2.62;1357.25;4284.00;0.01;8.04;;;;;8.70;1.00;;;;;;2272968;61;1573;-89
2022/03/10 01:34:54;771252.00;2.57;1331.03;63288.00;0.21;110.16;;;;;8.60;1.00;;;;;;2272985;61;1017;-89
2022/03/10 01:40:24;554811.00;1.85;956.25;38206.00;0.13;66.78;;;;;7.70;1.00;;;;;;2272761;61;1695;-90
2022/03/10 01:42:58;437027.00;1.46;753.47;65399.00;0.22;113.81;;;;;7.40;1.00;;;;;;2272997;61;1267;-89
2022/03/10 01:45:50;486664.00;1.62;838.87;99075.00;0.33;171.98;;;;;6.10;1.00;;;;;;2272827;61;1586;-89
2022/03/10 01:48:32;416973.00;1.39;718.99;49513.00;0.17;86.34;;;;;6.10;1.00;;;;;;2272847;61;1619;-89
2022/03/10 01:51:32;157980.00;0.53;273.56;0.00;0.00;0.62;;;;;6.50;1.00;;;;;;2272817;61;1581;-88
2022/03/10 01:54:30;1153727.00;3.85;2006.78;124728.00;0.42;216.24;;;;;6.60;1.00;;;;;;2272853;61;1332;-89
2022/03/10 02:06:40;286699.00;0.96;495.05;88802.00;0.30;154.24;;;;;8.70;1.00;;;;;;2276288;61;1114;-88
2022/03/10 02:35:21;474745.00;1.58;818.35;0.00;0.00;0.62;;;;;7.40;1.00;;;;;;2246515;61;1281;-89
2022/03/10 02:38:19;296001.00;0.99;511.05;0.00;0.00;0.62;;;;;7.10;1.00;;;;;;2248046;61;1382;-88
2022/03/10 02:51:17;361155.00;1.20;623.03;0.00;0.00;0.62;;;;;7.90;1.00;;;;;;2251731;61;2009;-88
2022/03/10 02:54:41;603002.00;2.01;1039.40;91886.00;0.31;159.56;;;;;7.70;1.00;;;;;;2252021;61;1574;-90
2022/03/10 03:07:17;340958.00;1.14;588.32;0.00;0.00;0.62;;;;;7.50;1.00;;;;;;2248332;61;1423;-87
2022/03/10 03:13:40;429897.00;1.43;741.21;41266.00;0.14;72.08;;;;;6.60;1.00;;;;;;2257553;61;1214;-89
2022/03/10 03:43:06;269740.00;0.90;465.90;96278.00;0.32;167.15;;;;;8.60;1.00;;;;;;2255727;61;1755;-87
2022/03/10 03:59:03;325704.00;1.09;562.10;0.00;0.00;0.62;;;;;9.80;1.00;;;;;;2314958;56;1711;-88
2022/03/10 04:02:10;337924.00;1.13;583.11;0.00;0.00;0.62;;;;;9.80;1.00;;;;;;2276011;61;1371;-87
2022/03/10 04:23:39;1456006.00;4.85;2560.61;0.00;0.00;0.62;;;;;5.90;1.00;;;;;;2278062;61;1243;-91
2022/03/10 04:29:20;153081.00;0.51;265.12;0.00;0.00;0.62;;;;;5.70;1.00;;;;;;2276056;61;1908;-89
2022/03/10 04:32:20;;;;;;;;;;;;;;;;;;;;;
2022/03/10 04:47:57;1092438.00;3.64;1896.91;0.00;0.00;0.62;;;;;7.80;1.00;;;;;;2275246;61;1379;-89
2022/03/10 04:50:52;391564.00;1.31;675.30;0.00;0.00;0.62;;;;;7.40;1.00;;;;;;2276207;61;2010;-89
2022/03/10 05:01:24;607851.00;2.03;1047.78;85180.00;0.28;147.98;;;;;7.20;1.00;;;;;;1617070;40;1811;-89
2022/03/10 05:03:58;641912.00;2.14;1106.65;98270.00;0.33;170.59;;;;;6.90;1.00;;;;;;2271979;61;1395;-88
2022/03/10 05:06:25;1074786.00;3.58;1865.39;144365.00;0.48;250.10;;;;;6.70;1.00;;;;;;2272046;61;1583;-87
2022/03/10 05:11:33;2030734.00;6.77;3687.62;346423.00;1.15;597.71;;;;;6.00;1.00;;;;;;2271772;61;2010;-89
2022/03/10 05:14:02;1449133.00;4.83;2547.77;267039.00;0.89;461.25;;;;;5.90;1.00;;;;;;2272069;61;913;-87
2022/03/10 05:16:34;1130201.00;3.77;1964.52;75465.00;0.25;131.20;;;;;6.10;1.00;;;;;;2272153;61;1037;-88
2022/03/10 05:19:08;1273286.00;4.24;2223.30;101571.00;0.34;176.28;;;;;6.10;1.00;;;;;;2271882;61;1645;-86
2022/03/10 05:21:37;125068328.00;416.89;79258672.00;100795.00;0.34;174.94;;;;;5.70;1.00;;;;;;2271936;61;1493;-88
2022/03/10 05:24:09;671036.00;2.24;1157.05;102478.00;0.34;177.85;;;;;5.70;1.00;;;;;;2271929;61;1106;-88
2022/03/10 05:26:37;1206214.00;4.02;2101.46;95623.00;0.32;166.02;;;;;6.30;1.00;;;;;;2271939;61;1544;-87
2022/03/10 05:29:07;944269.00;3.15;1634.01;90597.00;0.30;157.34;;;;;6.50;1.00;;;;;;2271771;61;1430;-88
2022/03/10 05:31:34;863482.00;2.88;1492.07;92596.00;0.31;160.79;;;;;6.90;1.00;;;;;;2271840;61;1941;-87
2022/03/10 05:34:04;1055504.00;3.52;1831.03;112121.00;0.37;194.49;;;;;7.30;1.00;;;;;;2271780;61;1496;-87
2022/03/10 05:36:34;849533.00;2.83;1467.65;87659.00;0.29;152.27;;;;;7.80;1.00;;;;;;2271859;61;1460;-88
2022/03/10 05:39:02;806034.00;2.69;1391.65;99619.00;0.33;172.91;;;;;8.00;1.00;;;;;;2271945;61;2306;-87
2022/03/10 05:41:33;872447.00;2.91;1507.78;57746.00;0.19;100.58;;;;;8.40;1.00;;;;;;2271939;61;1524;-88
2022/03/10 05:44:02;657032.00;2.19;1132.80;89237.00;0.30;154.99;;;;;8.80;1.00;;;;;;2271988;61;1102;-90
2022/03/10 05:46:29;808761.00;2.70;1396.41;96444.00;0.32;167.43;;;;;9.10;1.00;;;;;;2271895;61;1104;-86
2022/03/10 05:48:57;574169.00;1.91;989.64;85902.00;0.29;149.23;;;;;9.10;1.00;;;;;;2272107;61;1158;-85
2022/03/10 05:51:25;753593.00;2.51;1300.31;0.00;0.00;0.62;;;;;8.40;1.00;;;;;;2271821;61;2014;-85
2022/03/10 05:53:54;273350.00;0.91;472.10;0.00;0.00;0.62;;;;;8.70;1.00;;;;;;2271864;61;1558;-85
2022/03/10 05:56:21;772284.00;2.57;1332.83;0.00;0.00;0.62;;;;;8.80;1.00;;;;;;2271717;61;2205;-87
2022/03/10 05:58:48;806383.00;2.69;1392.26;1028.00;0.00;2.40;;;;;9.10;1.00;;;;;;2272239;61;1528;-87
2022/03/10 06:01:17;757309.00;2.52;1306.77;51737.00;0.17;90.19;;;;;9.30;1.00;;;;;;2272266;61;2205;-86
2022/03/10 06:03:45;345243.00;1.15;595.69;0.00;0.00;0.62;;;;;9.20;1.00;;;;;;2272247;61;1701;-87
2022/03/10 06:06:13;695711.00;2.32;1199.80;9132.00;0.03;16.45;;;;;9.00;1.00;;;;;;2272404;61;1394;-84
2022/03/10 06:08:43;554028.00;1.85;954.90;46853.00;0.16;81.74;;;;;8.90;1.00;;;;;;2272419;61;1195;-84
2022/03/10 06:11:11;418732.00;1.40;722.01;0.00;0.00;0.62;;;;;8.90;1.00;;;;;;2272340;61;1931;-87
2022/03/10 06:13:38;591698.00;1.97;1019.89;0.00;0.00;0.62;;;;;8.50;1.00;;;;;;2272032;61;1692;-87
2022/03/10 06:16:06;693007.00;2.31;1195.11;36997.00;0.12;64.69;;;;;8.10;1.00;;;;;;2272577;61;1556;-88
2022/03/10 06:18:33;646118.00;2.15;1113.92;5762.00;0.02;10.61;;;;;7.20;1.00;;;;;;2272247;61;1419;-86
2022/03/10 06:21:00;912526.00;3.04;1578.13;1994.00;0.01;4.08;;;;;7.20;1.00;;;;;;2272218;61;1636;-86
2022/03/10 06:23:27;813069.00;2.71;1403.93;0.00;0.00;0.62;;;;;6.90;1.00;;;;;;2272066;61;1410;-86
2022/03/10 06:25:56;732698.00;2.44;1263.99;6346.00;0.02;11.62;;;;;6.60;1.00;;;;;;2272162;61;1548;-87
2022/03/10 06:28:24;502338.00;1.67;865.85;0.00;0.00;0.62;;;;;6.80;1.00;;;;;;2272297;61;1161;-87
2022/03/10 06:30:51;666608.00;2.22;1149.38;0.00;0.00;0.62;;;;;7.00;1.00;;;;;;2271835;61;2008;-85
2022/03/10 06:33:25;852567.00;2.84;1472.96;41248.00;0.14;72.05;;;;;6.90;1.00;;;;;;2271914;61;1113;-86
2022/03/10 06:35:52;640991.00;2.14;1105.05;0.00;0.00;0.62;;;;;7.00;1.00;;;;;;2271500;61;1060;-86
2022/03/10 06:38:19;908886.00;3.03;1571.73;41119.00;0.14;71.82;;;;;6.60;1.00;;;;;;2271551;61;2163;-86
2022/03/10 06:40:50;886345.00;2.95;1532.15;31772.00;0.11;55.65;;;;;6.50;1.00;;;;;;2271469;61;1400;-85
2022/03/10 06:43:28;658787.00;2.20;1135.84;0.00;0.00;0.62;;;;;6.80;1.00;;;;;;2271542;61;1638;-86
2022/03/10 06:45:55;129156080.00;430.52;87295088.00;0.00;0.00;0.62;;;;;7.00;1.00;;;;;;2271314;61;1464;-85
2022/03/10 06:48:25;667281.00;2.22;1150.55;0.00;0.00;0.62;;;;;5.50;1.00;;;;;;2272068;61;1143;-87
2022/03/10 06:50:54;771013.00;2.57;1330.62;0.00;0.00;0.62;;;;;5.50;1.00;;;;;;2272117;61;2022;-86
2022/03/10 06:53:27;1065811.00;3.55;1849.39;42363.00;0.14;73.98;;;;;5.80;1.00;;;;;;2271732;61;1475;-84
2022/03/10 06:55:57;547099.00;1.82;942.96;0.00;0.00;0.62;;;;;6.40;1.00;;;;;;2272193;61;1534;-87
2022/03/10 06:58:28;926288.00;3.09;1602.34;0.00;0.00;0.62;;;;;7.50;1.00;;;;;;2271982;61;1431;-86
2022/03/10 07:01:01;565463.00;1.88;974.62;19070.00;0.06;33.66;;;;;8.40;1.00;;;;;;2271544;61;1773;-85
2022/03/10 07:03:41;757357.00;2.52;1306.85;11977.00;0.04;21.37;;;;;9.00;1.00;;;;;;2271383;61;1479;-87
2022/03/10 07:06:11;579279.00;1.93;998.45;0.00;0.00;0.62;;;;;9.90;1.00;;;;;;2272190;61;1614;-87
2022/03/10 07:08:51;520849.00;1.74;897.73;0.00;0.00;0.62;;;;;9.90;1.00;;;;;;2272307;61;1506;-88
2022/03/10 07:11:26;542086.00;1.81;934.32;0.00;0.00;0.62;;;;;9.50;1.00;;;;;;2272179;61;2006;-84
2022/03/10 07:14:00;620639.00;2.07;1069.87;0.00;0.00;0.62;;;;;9.40;1.00;;;;;;2272263;61;1510;-83
2022/03/10 07:16:49;728224.00;2.43;1256.22;0.00;0.00;0.62;;;;;9.30;1.00;;;;;;2270485;61;1123;-85
2022/03/10 07:19:31;595887.00;1.99;1027.12;3112.00;0.01;6.01;;;;;10.00;1.00;;;;;;2266386;61;1524;-85
2022/03/10 07:22:19;700221.00;2.33;1207.62;99970.00;0.33;173.52;;;;;10.60;1.00;;;;;;2270742;61;1071;-85
2022/03/10 07:27:36;1537619.00;5.13;2714.11;98961.00;0.33;171.78;;;;;10.00;1.00;;;;;;2268937;61;1109;-85
2022/03/10 07:30:31;1555973.00;5.19;2748.89;102489.00;0.34;177.87;;;;;9.00;1.00;;;;;;2268807;61;1919;-84
2022/03/10 07:36:28;476967.00;1.59;822.18;0.00;0.00;0.62;;;;;9.30;1.00;;;;;;2271919;61;936;-85
2022/03/10 07:39:02;650599.00;2.17;1121.67;0.00;0.00;0.62;;;;;9.50;1.00;;;;;;2271902;61;1103;-84
2022/03/10 07:41:41;1121273.00;3.74;1948.51;9828.00;0.03;17.65;;;;;9.60;1.00;;;;;;2268376;61;1524;-83
2022/03/10 07:44:24;581218.00;1.94;1001.80;0.00;0.00;0.62;;;;;10.00;1.00;;;;;;2268299;61;1474;-86
2022/03/10 07:50:36;1841042.00;6.14;3302.88;62966.00;0.21;109.60;;;;;10.60;1.00;;;;;;2264481;61;1246;-85
2022/03/10 07:56:52;584554.00;1.95;1007.56;0.00;0.00;0.62;;;;;11.10;1.00;;;;;;2240814;62;1124;-84
2022/03/10 08:14:08;419741.00;1.40;723.75;0.00;0.00;0.62;;;;;12.80;1.00;;;;;;2267914;61;1305;-85
2022/03/10 08:17:18;540115.00;1.80;930.92;0.00;0.00;0.62;;;;;12.10;1.00;;;;;;2266729;61;1127;-85
2022/03/10 08:23:46;678996.00;2.26;1170.83;134095.00;0.45;232.39;;;;;12.90;1.00;;;;;;2271493;61;1613;-86
2022/03/10 08:32:38;599817.00;2.00;1033.90;0.00;0.00;0.62;;;;;13.00;1.00;;;;;;2266890;61;1924;-86
2022/03/10 08:38:14;851344.00;2.84;1470.82;12613.00;0.04;22.48;;;;;13.80;1.00;;;;;;2269391;61;1521;-87
2022/03/10 08:41:04;447080.00;1.49;770.76;26277.00;0.09;46.14;;;;;13.70;1.00;;;;;;2271832;61;1540;-84
2022/03/10 08:53:18;706799.00;2.36;1219.03;53269.00;0.18;92.84;;;;;12.70;1.00;;;;;;2253564;61;1487;-84
2022/03/10 09:02:06;966297.00;3.22;1672.87;49056.00;0.16;85.55;;;;;12.10;1.00;;;;;;2254676;61;1425;-83
2022/03/10 09:04:57;961031.00;3.20;1663.57;62478.00;0.21;108.76;;;;;11.40;1.00;;;;;;2254992;61;1605;-85
2022/03/10 09:07:42;586538.00;1.96;1010.98;31202.00;0.10;54.66;;;;;10.80;1.00;;;;;;2255519;61;1470;-84
2022/03/10 09:10:27;575435.00;1.92;991.82;0.00;0.00;0.62;;;;;10.60;1.00;;;;;;2258632;61;1424;-86
2022/03/10 09:13:17;649316.00;2.16;1119.45;0.00;0.00;0.62;;;;;11.00;1.00;;;;;;2258606;61;1428;-86
2022/03/10 09:15:58;459979.00;1.53;792.95;0.00;0.00;0.62;;;;;11.50;1.00;;;;;;2256906;61;1459;-85
2022/03/10 09:19:00;698506.00;2.33;1204.65;0.00;0.00;0.62;;;;;11.00;1.00;;;;;;2257345;61;1061;-85
2022/03/10 09:22:07;1625327.00;5.42;2881.24;153882.00;0.51;266.50;;;;;10.90;1.00;;;;;;2259057;61;1766;-87
2022/03/10 09:24:46;1898964.00;6.33;3418.89;191383.00;0.64;331.09;;;;;10.60;1.00;;;;;;2261237;61;1156;-86
2022/03/10 09:41:06;1065971.00;3.55;1849.67;0.00;0.00;0.62;;;;;10.20;1.00;;;;;;2274436;61;1332;-87
2022/03/10 09:46:37;652088.00;2.17;1124.25;0.00;0.00;0.62;;;;;10.00;1.00;;;;;;2257463;61;1053;-86
2022/03/10 09:49:11;766164.00;2.55;1322.18;0.00;0.00;0.62;;;;;10.10;1.00;;;;;;2270259;61;1439;-85
2022/03/10 09:54:35;676747.00;2.26;1166.94;84963.00;0.28;147.61;;;;;10.00;1.00;;;;;;2270623;61;1111;-86
2022/03/10 09:57:26;1015743.00;3.39;1760.37;123148.00;0.41;213.51;;;;;10.10;1.00;;;;;;2270127;61;1617;-86
2022/03/10 10:03:11;1181305.00;3.94;2056.46;66770.00;0.22;116.18;;;;;10.40;1.00;;;;;;2276256;61;1403;-86
2022/03/10 10:06:29;1205664.00;4.02;2100.46;183604.00;0.61;317.70;;;;;10.60;1.00;;;;;;2273249;61;1579;-86
2022/03/10 10:23:45;1507265.00;5.02;2656.80;119181.00;0.40;206.67;;;;;11.30;1.00;;;;;;2247386;61;1514;-85
2022/03/10 11:33:21;994354.00;3.31;1722.47;155114.00;0.52;268.62;;;;;16.20;1.00;;;;;;2242775;62;1986;-86
2022/03/10 12:30:20;235678.00;0.79;407.32;0.00;0.00;0.62;;;;;16.20;1.00;;;;;;2244627;61;1056;-86
2022/03/10 12:43:00;676522.00;2.26;1166.55;0.00;0.00;0.62;;;;;15.10;1.00;;;;;;2269497;56;1882;-85
2022/03/10 12:49:01;343699.00;1.15;593.03;0.00;0.00;0.62;;;;;15.60;1.00;;;;;;2266173;61;1110;-85
2022/03/10 12:52:01;489027.00;1.63;842.93;2178.00;0.01;4.39;;;;;15.30;1.00;;;;;;2267930;61;1951;-85
2022/03/10 12:54:53;548178.00;1.83;944.82;85923.00;0.29;149.27;;;;;15.50;1.00;;;;;;2269134;61;1560;-85
2022/03/10 12:57:47;690607.00;2.30;1190.95;99923.00;0.33;173.44;;;;;15.30;1.00;;;;;;2268364;61;1549;-86
2022/03/10 13:00:52;670186.00;2.23;1155.58;78413.00;0.26;136.30;;;;;15.40;1.00;;;;;;2269902;61;1601;-86
2022/03/10 13:03:31;737437.00;2.46;1272.22;140048.00;0.47;242.65;;;;;15.50;1.00;;;;;;2270584;61;1458;-88
2022/03/10 13:06:04;780223.00;2.60;1346.65;120263.00;0.40;208.54;;;;;15.90;1.00;;;;;;2272578;61;1044;-88
2022/03/10 13:19:24;499799.00;1.67;861.48;84989.00;0.28;147.65;;;;;16.40;1.00;;;;;;2252127;61;1566;-85
2022/03/10 13:25:48;483382.00;1.61;833.22;0.00;0.00;0.62;;;;;16.50;1.00;;;;;;2251026;61;1434;-86
2022/03/10 13:32:13;514845.00;1.72;887.39;161030.00;0.54;278.81;;;;;16.90;1.00;;;;;;2232016;62;1993;-85
2022/03/10 13:35:08;2015078.00;6.72;3655.33;246485.00;0.82;425.91;;;;;16.60;1.00;;;;;;2232969;62;1473;-87
2022/03/10 13:44:33;211593.00;0.71;365.88;0.00;0.00;0.62;;;;;16.10;1.00;;;;;;2232284;62;1177;-88
2022/03/10 13:57:43;552386.00;1.84;952.07;29276.00;0.10;51.33;;;;;15.30;1.00;;;;;;2249175;61;1097;-86
2022/03/10 14:24:57;321343.00;1.07;554.61;0.00;0.00;0.62;;;;;16.30;1.00;;;;;;2275268;61;1153;-86
2022/03/10 14:34:13;470324.00;1.57;810.75;0.00;0.00;0.62;;;;;15.00;1.00;;;;;;2275907;61;1164;-88
2022/03/10 14:43:02;1055967.00;3.52;1831.85;81274.00;0.27;141.24;;;;;16.10;1.00;;;;;;2262732;61;1211;-86
2022/03/10 14:46:04;1540606.00;5.14;2719.76;169398.00;0.56;293.23;;;;;16.20;1.00;;;;;;2272200;61;1754;-86
2022/03/10 14:48:55;123298.00;0.41;213.77;0.00;0.00;0.62;;;;;16.50;1.00;;;;;;2272749;61;1540;-84
2022/03/10 15:01:01;589702.00;1.97;1016.44;78211.00;0.26;135.95;;;;;15.60;1.00;;;;;;2252393;61;1384;-85
2022/03/10 15:03:45;689895.00;2.30;1189.72;60731.00;0.20;105.74;;;;;15.30;1.00;;;;;;2251646;61;1411;-84
2022/03/10 15:06:33;334138.00;1.11;576.60;45347.00;0.15;79.14;;;;;15.60;1.00;;;;;;2252292;61;1244;-85
2022/03/10 15:09:00;208085.00;0.69;359.84;0.00;0.00;0.62;;;;;15.60;1.00;;;;;;2249960;61;1485;-82
2022/03/10 15:11:27;162300.00;0.54;281.00;0.00;0.00;0.62;;;;;15.90;1.00;;;;;;2248211;61;1367;-82
2022/03/10 15:13:54;56856.00;0.19;99.04;0.00;0.00;0.62;;;;;16.00;1.00;;;;;;2248207;61;1959;-83
2022/03/10 15:16:23;62443.00;0.21;108.70;0.00;0.00;0.62;;;;;16.20;1.00;;;;;;2248410;61;1107;-82
2022/03/10 15:18:49;58910.00;0.20;102.59;0.00;0.00;0.62;;;;;16.40;1.00;;;;;;2250665;61;1128;-82
2022/03/10 15:21:17;37835.00;0.13;66.14;0.00;0.00;0.62;;;;;16.30;1.00;;;;;;2268871;61;1412;-82
2022/03/10 15:23:45;50143.00;0.17;87.43;0.00;0.00;0.62;;;;;16.40;1.00;;;;;;2267172;61;1266;-82
2022/03/10 15:26:12;92346.00;0.31;160.36;0.00;0.00;0.62;;;;;16.40;1.00;;;;;;2269745;61;1140;-82
2022/03/10 15:28:39;82852.00;0.28;143.96;0.00;0.00;0.62;;;;;16.20;1.00;;;;;;2269186;61;1122;-83
2022/03/10 15:31:07;63004.00;0.21;109.67;0.00;0.00;0.62;;;;;16.00;1.00;;;;;;2268339;61;1308;-83
2022/03/10 15:33:36;141351.00;0.47;244.90;0.00;0.00;0.62;;;;;15.70;1.00;;;;;;2268364;61;2037;-82
2022/03/10 15:36:03;136967.00;0.46;237.34;0.00;0.00;0.62;;;;;15.40;1.00;;;;;;2268275;61;1130;-83
2022/03/10 15:38:30;336240.00;1.12;580.21;107080.00;0.36;185.79;;;;;15.60;1.00;;;;;;2269723;61;1153;-82
2022/03/10 15:40:57;27388.00;0.09;48.06;0.00;0.00;0.62;;;;;15.70;1.00;;;;;;2268997;61;1364;-84
2022/03/10 15:43:26;142426.00;0.47;246.75;0.00;0.00;0.62;;;;;15.80;1.00;;;;;;2269110;61;1250;-84
2022/03/10 15:45:53;212943.00;0.71;368.20;3049.00;0.01;5.90;;;;;15.70;1.00;;;;;;2268207;61;2151;-84
2022/03/10 15:48:20;139533.00;0.47;241.77;0.00;0.00;0.62;;;;;15.80;1.00;;;;;;2268965;61;1254;-85
2022/03/10 15:50:49;69485.00;0.23;120.87;0.00;0.00;0.62;;;;;15.80;1.00;;;;;;2268108;61;1428;-84
2022/03/10 15:53:22;110859.00;0.37;192.31;0.00;0.00;0.62;;;;;15.70;1.00;;;;;;2269910;61;2010;-84
2022/03/10 15:55:49;187676.00;0.63;324.71;0.00;0.00;0.62;;;;;15.40;1.00;;;;;;2269969;61;1162;-84
2022/03/10 15:58:16;128471.00;0.43;222.69;0.00;0.00;0.62;;;;;15.40;1.00;;;;;;2274585;61;1062;-84
2022/03/10 16:00:43;207231.00;0.69;358.37;46106.00;0.15;80.45;;;;;15.50;1.00;;;;;;2276423;61;1278;-85
2022/03/10 16:03:10;143573.00;0.48;248.73;0.00;0.00;0.62;;;;;15.60;1.00;;;;;;2276496;61;1098;-86
2022/03/10 16:05:37;71659.00;0.24;124.63;0.00;0.00;0.62;;;;;15.70;1.00;;;;;;2276544;61;1146;-85
2022/03/10 16:08:05;73503.00;0.25;127.81;0.00;0.00;0.62;;;;;15.70;1.00;;;;;;2275488;61;1031;-83
2022/03/10 16:10:32;373660.00;1.25;644.53;27021.00;0.09;47.43;;;;;15.40;1.00;;;;;;2271070;61;1258;-83
2022/03/10 16:13:00;257517.00;0.86;444.88;0.00;0.00;0.62;;;;;15.40;1.00;;;;;;2267600;61;1938;-84
2022/03/10 16:15:28;72850.00;0.24;126.69;0.00;0.00;0.62;;;;;15.50;1.00;;;;;;2267773;61;1187;-84
2022/03/10 16:17:55;118767.00;0.40;205.96;0.00;0.00;0.62;;;;;15.50;1.00;;;;;;2267453;61;1047;-85
2022/03/10 16:20:22;43332.00;0.14;75.65;0.00;0.00;0.62;;;;;15.40;1.00;;;;;;2266638;61;1240;-85
2022/03/10 16:22:50;60607.00;0.20;105.53;0.00;0.00;0.62;;;;;15.50;1.00;;;;;;2266385;61;1158;-83
2022/03/10 16:25:18;64590.00;0.22;112.41;0.00;0.00;0.62;;;;;15.40;1.00;;;;;;2267088;61;1179;-83
2022/03/10 16:27:47;93883.00;0.31;163.01;0.00;0.00;0.62;;;;;15.40;1.00;;;;;;2265781;61;2044;-84
2022/03/10 16:30:15;223646.00;0.75;386.62;20735.00;0.07;36.54;;;;;15.30;1.00;;;;;;2266225;61;1256;-84
2022/03/10 16:32:45;146532.00;0.49;253.83;0.00;0.00;0.62;;;;;15.00;1.00;;;;;;2265638;61;2118;-83
2022/03/10 16:35:12;62172.00;0.21;108.23;0.00;0.00;0.62;;;;;15.00;1.00;;;;;;2267137;61;1744;-84
2022/03/10 16:37:39;238326.00;0.79;411.87;0.00;0.00;0.62;;;;;15.00;1.00;;;;;;2267870;61;1158;-84
2022/03/10 16:40:07;163142.00;0.54;282.45;0.00;0.00;0.62;;;;;15.10;1.00;;;;;;2267694;61;1276;-83
2022/03/10 16:42:36;178064.00;0.59;308.16;0.00;0.00;0.62;;;;;15.10;1.00;;;;;;2272208;61;1175;-83
2022/03/10 16:45:03;148033.00;0.49;256.42;0.00;0.00;0.62;;;;;14.90;1.00;;;;;;2268011;61;1100;-83
2022/03/10 16:47:30;218929.00;0.73;378.50;25782.00;0.09;45.28;;;;;15.20;1.00;;;;;;2265473;61;1067;-84
2022/03/10 16:49:57;100281.00;0.33;174.06;0.00;0.00;0.62;;;;;15.50;1.00;;;;;;2265621;61;1361;-83
2022/03/10 16:52:25;115682.00;0.39;200.63;0.00;0.00;0.62;;;;;15.40;1.00;;;;;;2266553;61;1943;-84
2022/03/10 16:54:52;92033.00;0.31;159.82;0.00;0.00;0.62;;;;;15.30;1.00;;;;;;2265952;61;1147;-84
2022/03/10 16:57:19;152302.00;0.51;263.77;0.00;0.00;0.62;;;;;15.10;1.00;;;;;;2265764;61;1171;-84
2022/03/10 16:59:48;99968.00;0.33;173.52;0.00;0.00;0.62;;;;;15.10;1.00;;;;;;2265343;61;1335;-84
2022/03/10 17:02:15;55359.00;0.18;96.45;0.00;0.00;0.62;;;;;15.10;1.00;;;;;;2265374;61;2080;-84
2022/03/10 17:04:42;170268.00;0.57;294.73;0.00;0.00;0.62;;;;;15.10;1.00;;;;;;2265336;61;1151;-84
2022/03/10 17:07:10;162363.00;0.54;281.11;0.00;0.00;0.62;;;;;15.10;1.00;;;;;;2265476;61;1025;-84
2022/03/10 17:09:38;137024.00;0.46;237.44;0.00;0.00;0.62;;;;;15.10;1.00;;;;;;2267730;61;1258;-81
2022/03/10 17:12:06;510174.00;1.70;879.34;97326.00;0.32;168.96;;;;;15.00;1.00;;;;;;2272495;61;1223;-85
2022/03/10 17:14:33;165513.00;0.55;286.54;0.00;0.00;0.62;;;;;15.10;1.00;;;;;;2272522;61;1933;-84
2022/03/10 17:17:02;134225.00;0.45;232.61;0.00;0.00;0.62;;;;;15.00;1.00;;;;;;2273432;61;1126;-86
2022/03/10 17:19:30;143989.00;0.48;249.45;0.00;0.00;0.62;;;;;15.00;1.00;;;;;;2272822;61;1360;-85
2022/03/10 17:21:57;141277.00;0.47;244.77;0.00;0.00;0.62;;;;;14.80;1.00;;;;;;2273714;61;1277;-85
2022/03/10 17:24:24;239571.00;0.80;414.01;0.00;0.00;0.62;;;;;14.30;1.00;;;;;;2272664;61;1407;-86
2022/03/10 17:26:53;145337.00;0.48;251.77;0.00;0.00;0.62;;;;;14.40;1.00;;;;;;2272425;61;1087;-86
2022/03/10 17:29:20;239173.00;0.80;413.33;0.00;0.00;0.62;;;;;14.50;1.00;;;;;;2271903;61;1131;-86
2022/03/10 17:31:49;289731.00;0.97;500.27;21839.00;0.07;38.45;;;;;14.60;1.00;;;;;;2271910;61;1512;-86
2022/03/10 17:34:22;462600.00;1.54;797.46;0.00;0.00;0.62;;;;;14.70;1.00;;;;;;2271452;61;2037;-86
2022/03/10 17:36:50;394555.00;1.32;680.44;0.00;0.00;0.62;;;;;14.80;1.00;;;;;;2271113;61;1180;-84
2022/03/10 17:39:20;158949.00;0.53;275.23;0.00;0.00;0.62;;;;;14.60;1.00;;;;;;2272362;61;1601;-86
2022/03/10 17:41:50;573054.00;1.91;987.72;18271.00;0.06;32.28;;;;;14.40;1.00;;;;;;2273900;61;1270;-86
2022/03/10 17:44:35;437367.00;1.46;754.05;0.00;0.00;0.62;;;;;14.30;1.00;;;;;;2274261;61;1456;-86
2022/03/10 17:47:07;103765.00;0.35;180.07;0.00;0.00;0.62;;;;;14.00;1.00;;;;;;2274237;61;1088;-86
2022/03/10 17:49:41;183856.00;0.61;318.13;0.00;0.00;0.62;;;;;14.20;1.00;;;;;;2276390;61;1367;-86
2022/03/10 17:52:17;391717.00;1.31;675.57;107234.00;0.36;186.06;;;;;14.30;1.00;;;;;;2276068;61;1562;-86
2022/03/10 17:54:44;404296.00;1.35;697.19;0.00;0.00;0.62;;;;;14.40;1.00;;;;;;2275027;61;2027;-87
2022/03/10 17:57:13;541783.00;1.81;933.80;0.00;0.00;0.62;;;;;14.30;1.00;;;;;;2276041;61;1148;-86
2022/03/10 17:59:40;338226.00;1.13;583.62;0.00;0.00;0.62;;;;;14.10;1.00;;;;;;2274683;61;1375;-87
2022/03/10 18:02:07;403649.00;1.35;696.08;59964.00;0.20;104.41;;;;;14.20;1.00;;;;;;2274709;61;1088;-86
2022/03/10 18:04:36;392067.00;1.31;676.17;0.00;0.00;0.62;;;;;14.10;1.00;;;;;;2274661;61;1550;-85
2022/03/10 18:07:03;434441.00;1.45;749.02;56721.00;0.19;98.81;;;;;14.10;1.00;;;;;;2274451;61;1546;-85
2022/03/10 18:09:40;177617.00;0.59;307.39;0.00;0.00;0.62;;;;;13.80;1.00;;;;;;2274235;61;1528;-85
2022/03/10 18:12:09;269259.00;0.90;465.07;27889.00;0.09;48.93;;;;;13.70;1.00;;;;;;2270996;61;1538;-84
2022/03/10 18:14:39;356442.00;1.19;614.93;0.00;0.00;0.62;;;;;13.60;1.00;;;;;;2270170;61;1924;-84
2022/03/10 18:17:06;441940.00;1.47;761.92;0.00;0.00;0.62;;;;;13.60;1.00;;;;;;2270041;61;1733;-85